Time;durP1;ratioP1;P1;durP2;ratioP2;P2;SDS_P1;SDS_P2;PMS_P1;PMS_P2;Temp;Humidity;BMP_temperature;BMP_pressure;BME280_temperature;BME280_humidity;BME280_pressure;Samples;Min_cycle;Max_cycle;Signal;HPM_P1;HPM_P2
2022/07/20 00:00:01;;;;;;;8.50;5.83;;;21.20;99.90;;;;;;4862205;29;20648;-73
2022/07/20 00:02:28;;;;;;;11.47;5.97;;;21.10;99.90;;;;;;4860764;29;20368;-73
2022/07/20 00:04:55;;;;;;;9.40;5.60;;;21.10;99.90;;;;;;4861127;29;20312;-73
2022/07/20 00:07:22;;;;;;;11.23;5.90;;;21.10;99.90;;;;;;4860944;29;20238;-74
2022/07/20 00:12:35;;;;;;;8.93;6.10;;;21.00;99.90;;;;;;4860873;29;20205;-72
2022/07/20 00:15:02;;;;;;;8.03;5.83;;;20.90;99.90;;;;;;4860843;29;20229;-75
2022/07/20 00:17:29;;;;;;;9.87;5.87;;;20.90;99.90;;;;;;4861083;29;20212;-75
2022/07/20 00:19:56;;;;;;;9.60;5.87;;;20.80;99.90;;;;;;4861072;29;20292;-73
2022/07/20 00:22:23;;;;;;;10.37;6.27;;;20.80;99.90;;;;;;4860660;29;20213;-75
2022/07/20 00:24:49;;;;;;;9.40;6.47;;;20.70;99.90;;;;;;4861833;29;20327;-73
2022/07/20 00:27:16;;;;;;;9.67;6.40;;;20.70;99.90;;;;;;4860863;29;20208;-73
2022/07/20 00:29:43;;;;;;;11.70;6.40;;;20.70;99.90;;;;;;4860621;29;20213;-77
2022/07/20 00:32:10;;;;;;;11.93;6.73;;;20.70;99.90;;;;;;4860358;29;20229;-75
2022/07/20 00:34:37;;;;;;;10.13;6.20;;;20.60;99.90;;;;;;4860749;29;20216;-74
2022/07/20 00:37:04;;;;;;;9.93;6.57;;;20.50;99.90;;;;;;4860148;29;20309;-73
2022/07/20 00:39:31;;;;;;;10.83;6.70;;;20.50;99.90;;;;;;4860666;29;20209;-73
2022/07/20 00:41:57;;;;;;;13.17;7.23;;;20.50;99.90;;;;;;4860468;29;20213;-73
2022/07/20 00:44:26;;;;;;;10.50;6.73;;;20.50;99.90;;;;;;4861465;29;20225;-74
2022/07/20 00:46:54;;;;;;;20.17;8.03;;;20.50;99.90;;;;;;4860446;29;20300;-72
2022/07/20 00:49:21;;;;;;;10.67;6.60;;;20.50;99.90;;;;;;4861832;29;20193;-72
2022/07/20 00:51:49;;;;;;;9.93;6.20;;;20.50;99.90;;;;;;4860342;29;20341;-73
2022/07/20 00:54:16;;;;;;;9.37;6.60;;;20.50;99.90;;;;;;4861377;29;20200;-73
2022/07/20 00:56:43;;;;;;;10.17;6.70;;;20.50;99.90;;;;;;4845424;29;20212;-73
2022/07/20 00:59:10;;;;;;;13.30;6.30;;;20.50;99.90;;;;;;4861208;29;20611;-73
2022/07/20 01:01:39;;;;;;;11.87;6.63;;;20.50;99.90;;;;;;4844537;29;20707;-73
2022/07/20 01:04:06;;;;;;;11.93;6.50;;;20.40;99.90;;;;;;4844527;29;20232;-72
2022/07/20 01:06:33;;;;;;;10.80;6.73;;;20.40;99.90;;;;;;4845159;29;20216;-72
2022/07/20 01:09:00;;;;;;;11.17;6.60;;;20.30;99.90;;;;;;4861491;29;20197;-72
2022/07/20 01:11:27;;;;;;;9.20;6.67;;;20.30;99.90;;;;;;4860133;29;20197;-73
2022/07/20 01:14:07;;;;;;;13.13;6.60;;;20.20;99.90;;;;;;4844450;29;20309;-72
2022/07/20 01:16:35;;;;;;;13.03;6.90;;;20.20;99.90;;;;;;4859747;29;20219;-74
2022/07/20 01:19:03;;;;;;;10.83;6.80;;;20.10;99.90;;;;;;4859335;29;20202;-71
2022/07/20 01:21:30;;;;;;;12.47;7.10;;;20.10;99.90;;;;;;4859916;29;20213;-74
2022/07/20 01:23:57;;;;;;;13.93;6.93;;;20.10;99.90;;;;;;4859633;29;20233;-73
2022/07/20 01:26:24;;;;;;;10.90;6.90;;;20.10;99.90;;;;;;4859851;29;20304;-73
2022/07/20 01:28:51;;;;;;;8.53;6.60;;;20.00;99.90;;;;;;4859648;29;20215;-73
2022/07/20 01:31:19;;;;;;;11.73;6.87;;;20.00;99.90;;;;;;4859640;29;20571;-73
2022/07/20 01:33:46;;;;;;;11.67;6.47;;;19.90;99.90;;;;;;4859859;29;20212;-72
2022/07/20 01:36:13;;;;;;;11.63;6.80;;;19.90;99.90;;;;;;4860131;29;20202;-73
2022/07/20 01:38:40;;;;;;;11.40;6.70;;;19.90;99.90;;;;;;4859787;29;20197;-74
2022/07/20 01:41:07;;;;;;;10.60;7.20;;;19.90;99.90;;;;;;4859604;29;20712;-73
2022/07/20 01:43:34;;;;;;;12.50;6.57;;;19.90;99.90;;;;;;4859815;29;20236;-74
2022/07/20 01:46:01;;;;;;;9.93;6.80;;;19.80;99.90;;;;;;4859987;29;20208;-73
2022/07/20 01:48:28;;;;;;;8.80;6.40;;;19.80;99.90;;;;;;4859476;29;20214;-74
2022/07/20 01:50:54;;;;;;;10.37;6.40;;;19.80;99.90;;;;;;4860955;29;20615;-72
2022/07/20 01:53:21;;;;;;;12.33;6.33;;;19.70;99.90;;;;;;4859907;29;20197;-72
2022/07/20 01:55:48;;;;;;;10.90;6.60;;;19.70;99.90;;;;;;4859794;29;20201;-73
2022/07/20 01:58:15;;;;;;;11.10;6.53;;;19.60;99.90;;;;;;4859562;29;20670;-73
2022/07/20 02:00:42;;;;;;;9.80;6.23;;;19.60;99.90;;;;;;4859304;29;20658;-74
2022/07/20 02:03:09;;;;;;;13.87;6.60;;;19.60;99.90;;;;;;4859294;29;20205;-74
2022/07/20 02:05:36;;;;;;;9.77;6.40;;;19.50;99.90;;;;;;4859951;29;20244;-73
2022/07/20 02:08:04;;;;;;;12.67;6.43;;;19.50;99.90;;;;;;4859564;29;20198;-75
2022/07/20 02:10:31;;;;;;;9.13;6.33;;;19.40;99.90;;;;;;4859683;29;20220;-73
2022/07/20 02:12:58;;;;;;;11.63;6.90;;;19.40;99.90;;;;;;4859686;29;20211;-73
2022/07/20 02:18:12;;;;;;;11.23;6.70;;;19.30;99.90;;;;;;4859759;29;20201;-73
2022/07/20 02:20:39;;;;;;;18.23;7.37;;;19.20;99.90;;;;;;4859334;29;20310;-73
2022/07/20 02:23:09;;;;;;;9.43;6.00;;;19.20;99.90;;;;;;4859339;29;20304;-73
2022/07/20 02:25:38;;;;;;;12.03;6.57;;;19.10;99.90;;;;;;4859377;29;20233;-73
2022/07/20 02:28:05;;;;;;;9.60;6.70;;;19.10;99.90;;;;;;4859702;29;20237;-75
2022/07/20 02:30:32;;;;;;;10.07;6.67;;;19.10;99.90;;;;;;4860779;29;20207;-74
2022/07/20 02:33:01;;;;;;;9.73;6.53;;;19.10;99.90;;;;;;4862640;29;20221;-73
2022/07/20 02:35:28;;;;;;;9.60;6.57;;;19.10;99.90;;;;;;4864280;29;20289;-72
2022/07/20 02:37:55;;;;;;;10.20;6.40;;;19.10;99.90;;;;;;4847255;29;20216;-71
2022/07/20 02:40:22;;;;;;;11.83;6.67;;;19.00;99.90;;;;;;4863844;29;20205;-72
2022/07/20 02:42:48;;;;;;;12.53;6.90;;;19.00;99.90;;;;;;4862493;29;20635;-74
2022/07/20 02:45:15;;;;;;;9.63;6.50;;;19.00;99.90;;;;;;4863538;29;20221;-73
2022/07/20 02:47:44;;;;;;;11.07;6.87;;;19.00;99.90;;;;;;4862475;29;20720;-74
2022/07/20 02:50:11;;;;;;;10.17;6.63;;;18.90;99.90;;;;;;4862586;29;20237;-74
2022/07/20 02:52:39;;;;;;;11.17;6.57;;;18.90;99.90;;;;;;4862576;29;20642;-75
2022/07/20 02:55:07;;;;;;;10.57;6.60;;;18.90;99.90;;;;;;4862306;29;20292;-74
2022/07/20 02:57:34;;;;;;;10.87;6.80;;;18.90;99.90;;;;;;4862531;29;20215;-74
2022/07/20 03:00:07;;;;;;;9.33;6.43;;;18.80;99.90;;;;;;4863195;29;20233;-75
2022/07/20 03:02:34;;;;;;;11.67;6.37;;;18.80;99.90;;;;;;4862118;29;20690;-75
2022/07/20 03:05:01;;;;;;;9.57;6.80;;;18.80;99.90;;;;;;4862088;29;20229;-77
2022/07/20 03:07:28;;;;;;;14.70;6.97;;;18.70;99.90;;;;;;4862434;29;20205;-75
2022/07/20 03:09:55;;;;;;;11.83;7.07;;;18.70;99.90;;;;;;4861941;29;20576;-74
2022/07/20 03:12:22;;;;;;;14.07;7.10;;;18.60;99.90;;;;;;4863011;29;20190;-74
2022/07/20 03:14:49;;;;;;;10.13;7.17;;;18.70;99.90;;;;;;4862070;29;20201;-75
2022/07/20 03:17:16;;;;;;;12.80;7.17;;;18.70;99.90;;;;;;4861720;29;20292;-75
2022/07/20 03:19:44;;;;;;;10.17;6.40;;;18.70;99.90;;;;;;4862477;29;20219;-75
2022/07/20 03:22:11;;;;;;;12.63;7.60;;;18.70;99.90;;;;;;4863326;29;20230;-76
2022/07/20 03:24:38;;;;;;;14.63;7.33;;;18.70;99.90;;;;;;4863055;29;20260;-74
2022/07/20 03:27:05;;;;;;;10.33;6.70;;;18.70;99.90;;;;;;4861690;29;20224;-74
2022/07/20 03:29:33;;;;;;;10.60;6.90;;;18.70;99.90;;;;;;4861806;29;20636;-74
2022/07/20 03:32:00;;;;;;;11.50;6.70;;;18.70;99.90;;;;;;4861660;29;20225;-73
2022/07/20 03:34:27;;;;;;;13.97;7.30;;;18.70;99.90;;;;;;4861979;29;20205;-73
2022/07/20 03:36:54;;;;;;;10.50;7.10;;;18.70;99.90;;;;;;4861990;29;20232;-74
2022/07/20 03:39:21;;;;;;;14.07;7.17;;;18.70;99.90;;;;;;4862820;29;20197;-72
2022/07/20 03:41:48;;;;;;;12.33;7.07;;;18.70;99.90;;;;;;4861022;29;20209;-73
2022/07/20 03:44:15;;;;;;;11.20;6.90;;;18.70;99.90;;;;;;4862633;29;20229;-76
2022/07/20 03:46:42;;;;;;;10.17;6.47;;;18.80;99.90;;;;;;4862808;29;20561;-74
2022/07/20 03:49:09;;;;;;;12.00;6.60;;;18.80;99.90;;;;;;4862164;29;20198;-72
2022/07/20 03:51:38;;;;;;;13.20;7.10;;;18.80;99.90;;;;;;4861183;29;20662;-72
2022/07/20 03:54:07;;;;;;;10.30;6.93;;;18.90;99.90;;;;;;4861335;29;20571;-73
2022/07/20 03:56:40;;;;;;;13.23;7.73;;;18.90;99.90;;;;;;4845783;29;20209;-73
2022/07/20 03:59:11;;;;;;;12.07;6.90;;;18.90;99.90;;;;;;4861298;29;20660;-73
2022/07/20 04:01:38;;;;;;;11.03;6.83;;;19.00;99.90;;;;;;4845929;29;20740;-74
2022/07/20 04:04:06;;;;;;;10.87;6.60;;;19.00;99.90;;;;;;4862134;29;20251;-72
2022/07/20 04:06:34;;;;;;;11.43;7.07;;;18.90;99.90;;;;;;4845691;29;20684;-73
2022/07/20 04:09:01;;;;;;;21.13;8.13;;;19.00;99.90;;;;;;4861161;29;20244;-73
2022/07/20 04:11:28;;;;;;;12.77;7.17;;;19.00;99.90;;;;;;4860903;29;20296;-73
2022/07/20 04:13:56;;;;;;;10.93;6.90;;;19.10;99.90;;;;;;4860972;29;20648;-73
2022/07/20 04:16:23;;;;;;;20.67;7.87;;;19.10;99.90;;;;;;4861299;29;20209;-73
2022/07/20 04:18:50;;;;;;;11.73;7.10;;;19.20;99.90;;;;;;4860811;29;20235;-74
2022/07/20 04:21:17;;;;;;;13.27;7.07;;;19.30;99.90;;;;;;4845622;29;20205;-71
2022/07/20 04:23:44;;;;;;;12.10;6.80;;;19.30;99.90;;;;;;4845260;29;20308;-72
2022/07/20 04:26:11;;;;;;;11.40;6.93;;;19.30;99.90;;;;;;4845277;29;20324;-72
2022/07/20 04:28:38;;;;;;;10.73;7.00;;;19.30;99.90;;;;;;4860803;29;20208;-72
2022/07/20 04:31:05;;;;;;;10.70;6.77;;;19.40;99.90;;;;;;4860497;29;20304;-73
2022/07/20 04:33:32;;;;;;;11.90;6.53;;;19.40;99.90;;;;;;4860553;29;20221;-73
2022/07/20 04:35:59;;;;;;;10.03;6.43;;;19.50;99.90;;;;;;4860631;29;20731;-72
2022/07/20 04:38:26;;;;;;;13.57;7.43;;;19.60;99.90;;;;;;4860456;29;20220;-77
2022/07/20 04:40:53;;;;;;;16.37;7.27;;;19.60;99.90;;;;;;4860439;29;20292;-75
2022/07/20 04:43:20;;;;;;;11.27;6.77;;;19.70;99.90;;;;;;4860477;29;20225;-74
2022/07/20 04:45:46;;;;;;;12.57;7.37;;;19.70;99.90;;;;;;4860586;29;20662;-75
2022/07/20 04:48:22;;;;;;;17.03;7.07;;;19.80;99.90;;;;;;4862009;29;20249;-73
2022/07/20 04:50:49;;;;;;;10.73;7.03;;;19.80;99.90;;;;;;4861572;29;20201;-76
2022/07/20 04:53:16;;;;;;;12.80;6.97;;;19.80;99.90;;;;;;4860466;29;20216;-74
2022/07/20 04:55:43;;;;;;;10.17;6.93;;;19.90;99.90;;;;;;4844693;29;20209;-75
2022/07/20 04:58:09;;;;;;;12.07;6.90;;;20.00;99.90;;;;;;4861684;29;20202;-74
2022/07/20 05:00:37;;;;;;;12.90;6.87;;;20.00;99.90;;;;;;4848715;29;20333;-73
2022/07/20 05:03:04;;;;;;;10.97;6.87;;;20.10;99.90;;;;;;4861252;29;20194;-76
2022/07/20 05:05:31;;;;;;;11.43;6.83;;;20.10;99.90;;;;;;4860030;29;20218;-73
2022/07/20 05:07:58;;;;;;;12.00;6.87;;;20.20;99.90;;;;;;4859784;29;20293;-73
2022/07/20 05:10:25;;;;;;;11.00;6.83;;;20.30;99.90;;;;;;4859909;29;20757;-72
2022/07/20 05:12:52;;;;;;;11.50;6.93;;;20.30;99.90;;;;;;4859941;29;20296;-73
2022/07/20 05:15:19;;;;;;;13.03;6.70;;;20.40;99.90;;;;;;4861412;29;20601;-74
2022/07/20 05:17:46;;;;;;;12.63;7.50;;;20.40;99.90;;;;;;4859896;29;20721;-73
2022/07/20 05:20:13;;;;;;;12.33;7.00;;;20.50;99.90;;;;;;4859942;29;20235;-73
2022/07/20 05:22:40;;;;;;;12.33;7.10;;;20.60;99.90;;;;;;4844031;29;20215;-73
2022/07/20 05:25:07;;;;;;;27.23;8.37;;;20.60;99.90;;;;;;4860030;29;20233;-73
2022/07/20 05:27:34;;;;;;;12.27;6.33;;;20.70;99.90;;;;;;4844534;29;20198;-74
2022/07/20 05:30:01;;;;;;;10.90;6.23;;;20.70;99.90;;;;;;4844317;29;20201;-73
2022/07/20 05:32:28;;;;;;;12.40;6.93;;;20.80;99.90;;;;;;4859312;29;20229;-76
2022/07/20 05:35:05;;;;;;;16.77;7.47;;;20.90;99.90;;;;;;4859742;29;20603;-73
2022/07/20 05:37:32;;;;;;;10.63;6.77;;;20.90;99.90;;;;;;4859775;29;20299;-73
2022/07/20 05:39:59;;;;;;;11.40;7.47;;;21.00;99.90;;;;;;4860198;29;20198;-73
2022/07/20 05:42:26;;;;;;;12.87;7.10;;;21.00;99.90;;;;;;4857588;29;20219;-76
2022/07/20 05:44:52;;;;;;;13.50;7.20;;;21.10;99.90;;;;;;4843646;29;20716;-74
2022/07/20 05:47:20;;;;;;;9.60;6.67;;;21.10;99.90;;;;;;4859487;29;20206;-76
2022/07/20 05:49:51;;;;;;;17.40;7.37;;;21.20;99.90;;;;;;4844087;29;20235;-74
2022/07/20 05:52:18;;;;;;;14.13;6.70;;;21.40;99.90;;;;;;4859373;29;20628;-74
2022/07/20 05:54:45;;;;;;;13.57;7.03;;;21.40;99.90;;;;;;4860383;29;20217;-73
2022/07/20 05:57:12;;;;;;;9.50;6.23;;;21.40;99.90;;;;;;4859617;29;20209;-72
2022/07/20 05:59:40;;;;;;;11.70;6.77;;;21.50;99.90;;;;;;4859191;29;20305;-73
2022/07/20 06:02:08;;;;;;;14.23;7.23;;;21.60;99.90;;;;;;4859184;29;20609;-73
2022/07/20 06:04:37;;;;;;;10.67;7.20;;;21.70;99.90;;;;;;4862814;29;20205;-74
2022/07/20 06:07:05;;;;;;;17.47;7.73;;;21.70;99.90;;;;;;4863474;29;20284;-74
2022/07/20 06:09:32;;;;;;;14.10;7.90;;;21.80;99.90;;;;;;4864563;29;20197;-72
2022/07/20 06:11:59;;;;;;;15.20;7.63;;;21.80;99.90;;;;;;4847733;29;20233;-70
2022/07/20 06:14:26;;;;;;;14.83;6.70;;;21.90;99.90;;;;;;4864233;29;20555;-72
2022/07/20 06:16:54;;;;;;;12.50;6.50;;;22.00;99.90;;;;;;4864184;29;20201;-74
2022/07/20 06:19:21;;;;;;;11.43;6.30;;;22.00;99.90;;;;;;4864587;29;20206;-73
2022/07/20 06:21:48;;;;;;;15.33;6.53;;;22.00;99.90;;;;;;4862551;29;20292;-76
2022/07/20 06:24:15;;;;;;;10.00;5.80;;;22.10;99.90;;;;;;4864073;29;20225;-73
2022/07/20 06:26:45;;;;;;;12.13;5.23;;;22.30;99.90;;;;;;4863039;29;20229;-73
2022/07/20 06:29:14;;;;;;;9.57;5.87;;;22.30;99.90;;;;;;4863927;29;20266;-74
2022/07/20 06:31:42;;;;;;;10.60;6.30;;;22.40;99.90;;;;;;4862523;29;20629;-74
2022/07/20 06:34:29;;;;;;;10.80;5.57;;;22.40;99.90;;;;;;4863864;29;20197;-73
2022/07/20 06:36:55;;;;;;;11.10;6.20;;;22.50;99.90;;;;;;4864235;29;20731;-74
2022/07/20 06:39:23;;;;;;;13.33;6.00;;;22.60;99.90;;;;;;4862527;29;20664;-74
2022/07/20 06:41:49;;;;;;;11.73;6.13;;;22.70;99.90;;;;;;4862640;29;20197;-74
2022/07/20 06:44:16;;;;;;;9.40;6.03;;;22.70;99.90;;;;;;4862361;29;20258;-74
2022/07/20 06:46:44;;;;;;;8.40;5.37;;;22.80;99.90;;;;;;4846661;29;20297;-72
2022/07/20 06:49:10;;;;;;;11.40;5.90;;;22.80;99.90;;;;;;4847427;29;20209;-72
2022/07/20 06:51:37;;;;;;;10.03;6.07;;;22.80;99.90;;;;;;4862170;29;20711;-73
2022/07/20 06:54:05;;;;;;;10.80;5.68;;;23.00;99.90;;;;;;4862280;29;20213;-74
2022/07/20 06:56:39;;;;;;;9.47;6.20;;;23.00;99.90;;;;;;4862291;29;20209;-72
2022/07/20 06:59:06;;;;;;;8.33;5.60;;;23.20;99.90;;;;;;4862062;29;20212;-73
2022/07/20 07:01:33;;;;;;;10.37;5.93;;;23.20;99.90;;;;;;4861705;29;20242;-74
2022/07/20 07:04:00;;;;;;;8.90;5.88;;;23.30;99.90;;;;;;4862192;29;20613;-73
2022/07/20 07:06:28;;;;;;;7.20;5.30;;;23.30;99.90;;;;;;4862762;29;20293;-71
2022/07/20 07:08:56;;;;;;;11.23;5.65;;;23.30;99.90;;;;;;4863318;29;20231;-72
2022/07/20 07:11:23;;;;;;;10.68;6.20;;;23.50;99.90;;;;;;4862160;29;20210;-73
2022/07/20 07:13:50;;;;;;;11.60;6.60;;;23.50;99.90;;;;;;4861951;29;20211;-72
2022/07/20 07:16:17;;;;;;;12.43;6.30;;;23.50;99.90;;;;;;4845878;29;20285;-73
2022/07/20 07:18:44;;;;;;;12.15;6.40;;;23.60;99.90;;;;;;4846511;29;20662;-72
2022/07/20 07:21:11;;;;;;;11.30;6.70;;;23.70;99.90;;;;;;4846602;29;20212;-73
2022/07/20 07:23:38;;;;;;;9.60;6.07;;;23.80;99.90;;;;;;4846415;29;20213;-73
2022/07/20 07:26:05;;;;;;;8.82;6.00;;;23.90;99.90;;;;;;4863036;29;20233;-73
2022/07/20 07:28:32;;;;;;;13.93;6.38;;;23.90;99.90;;;;;;4846479;29;20201;-73
2022/07/20 07:30:59;;;;;;;11.07;6.28;;;24.00;99.90;;;;;;4861290;29;20240;-73
2022/07/20 07:33:26;;;;;;;10.30;6.32;;;24.00;99.90;;;;;;4861616;29;20239;-73
2022/07/20 07:35:54;;;;;;;10.73;6.65;;;24.10;99.90;;;;;;4846087;29;20648;-75
2022/07/20 07:38:21;;;;;;;9.63;6.30;;;24.10;99.90;;;;;;4845972;29;20284;-74
2022/07/20 07:40:48;;;;;;;8.73;5.82;;;24.00;99.90;;;;;;4861502;29;20205;-75
2022/07/20 07:43:15;;;;;;;10.25;6.15;;;24.10;99.90;;;;;;4861306;29;20205;-75
2022/07/20 07:45:42;;;;;;;14.20;5.78;;;24.20;99.90;;;;;;4862363;29;20225;-74
2022/07/20 07:48:10;;;;;;;9.55;5.55;;;24.10;99.90;;;;;;4862450;29;20186;-74
2022/07/20 07:50:38;;;;;;;12.77;5.53;;;24.30;99.90;;;;;;4862740;29;20209;-75
2022/07/20 07:53:07;;;;;;;10.35;5.63;;;24.30;99.90;;;;;;4845864;29;20652;-74
2022/07/20 07:55:35;;;;;;;8.80;5.00;;;24.40;99.90;;;;;;4861296;29;20209;-74
2022/07/20 07:58:02;;;;;;;9.55;5.05;;;24.50;99.90;;;;;;4861010;29;20244;-75
2022/07/20 08:00:35;;;;;;;10.95;5.05;;;24.60;99.90;;;;;;4860957;29;20289;-74
2022/07/20 08:03:03;;;;;;;7.50;4.65;;;24.80;99.90;;;;;;4845686;29;20288;-74
2022/07/20 08:05:31;;;;;;;7.03;4.50;;;24.60;99.90;;;;;;4860804;29;20328;-75
2022/07/20 08:08:03;;;;;;;8.70;4.60;;;24.70;99.90;;;;;;4845787;29;20672;-74
2022/07/20 08:10:30;;;;;;;10.10;4.82;;;24.90;99.90;;;;;;4862384;29;20293;-75
2022/07/20 08:13:00;;;;;;;7.65;4.70;;;25.00;99.90;;;;;;4860544;29;20652;-75
2022/07/20 08:15:27;;;;;;;8.77;4.68;;;25.10;99.90;;;;;;4860902;29;20236;-74
2022/07/20 08:17:54;;;;;;;6.93;4.07;;;25.20;99.90;;;;;;4861051;29;20212;-76
2022/07/20 08:20:23;;;;;;;6.90;4.70;;;25.40;99.90;;;;;;4845326;29;20201;-74
2022/07/20 08:22:51;;;;;;;5.60;4.35;;;25.50;99.90;;;;;;4860828;29;20194;-75
2022/07/20 08:25:19;;;;;;;7.25;4.85;;;25.70;99.90;;;;;;4860615;29;20229;-75
2022/07/20 08:27:46;;;;;;;6.43;4.40;;;26.30;99.90;;;;;;4859627;29;20607;-74
2022/07/20 08:30:14;;;;;;;13.23;5.05;;;27.20;99.90;;;;;;4861172;29;20209;-75
2022/07/20 08:33:01;;;;;;;7.93;4.53;;;28.20;99.90;;;;;;4860306;29;20225;-75
2022/07/20 08:35:28;;;;;;;8.32;4.47;;;29.20;99.90;;;;;;4860876;29;20205;-76
2022/07/20 08:37:54;;;;;;;7.90;4.75;;;29.90;99.50;;;;;;4860797;29;20215;-75
2022/07/20 08:40:22;;;;;;;10.43;5.13;;;30.40;97.80;;;;;;4845663;29;20708;-77
2022/07/20 08:42:49;;;;;;;6.93;4.63;;;30.70;94.30;;;;;;4861711;29;20288;-75
2022/07/20 08:45:16;;;;;;;11.93;4.50;;;30.80;93.20;;;;;;4860827;29;20236;-75
2022/07/20 08:47:45;;;;;;;7.80;4.80;;;31.20;92.90;;;;;;4860381;29;20242;-75
2022/07/20 08:50:12;;;;;;;8.35;5.32;;;31.60;91.40;;;;;;4860478;29;20641;-78
2022/07/20 08:52:40;;;;;;;7.72;5.13;;;31.70;90.10;;;;;;4860083;29;20205;-78
2022/07/20 08:55:10;;;;;;;6.22;3.80;;;31.90;88.70;;;;;;4860072;29;20206;-79
2022/07/20 08:57:37;;;;;;;9.63;4.13;;;31.90;84.00;;;;;;4841858;29;20201;-76
2022/07/20 09:00:05;;;;;;;9.55;4.20;;;31.60;81.00;;;;;;4860302;29;20229;-74
2022/07/20 09:02:54;;;;;;;6.95;4.30;;;32.00;80.40;;;;;;4859818;29;20240;-73
2022/07/20 09:05:24;;;;;;;9.38;4.47;;;32.20;80.00;;;;;;4859861;29;20236;-75
2022/07/20 09:07:56;;;;;;;7.53;4.15;;;32.60;77.90;;;;;;4860002;29;20216;-76
2022/07/20 09:10:38;;;;;;;6.55;4.15;;;32.60;78.00;;;;;;4859922;29;20312;-76
2022/07/20 09:13:14;;;;;;;8.00;4.40;;;32.80;76.20;;;;;;4861026;29;20196;-76
2022/07/20 09:15:49;;;;;;;7.75;4.50;;;33.00;75.70;;;;;;4860003;29;20201;-75
2022/07/20 09:18:22;;;;;;;7.28;4.18;;;33.00;73.30;;;;;;4844658;29;20209;-75
2022/07/20 09:20:51;;;;;;;6.15;4.03;;;32.90;74.20;;;;;;4859876;29;20210;-76
2022/07/20 09:23:23;;;;;;;9.95;4.75;;;33.00;72.40;;;;;;4859729;29;20670;-75
2022/07/20 09:26:00;;;;;;;7.05;4.18;;;33.30;72.40;;;;;;4844331;29;20254;-75
2022/07/20 09:28:34;;;;;;;6.38;4.15;;;33.40;72.70;;;;;;4859650;29;20232;-74
2022/07/20 09:31:01;;;;;;;8.13;4.50;;;33.40;70.30;;;;;;4859721;29;20197;-76
2022/07/20 09:33:32;;;;;;;9.18;4.00;;;33.50;69.90;;;;;;4859808;29;20229;-75
2022/07/20 09:36:04;;;;;;;7.60;4.75;;;33.60;69.80;;;;;;4859778;29;20712;-75
2022/07/20 09:38:37;;;;;;;7.72;4.00;;;33.70;68.90;;;;;;4859225;29;20193;-75
2022/07/20 09:41:19;;;;;;;7.35;4.15;;;33.70;69.00;;;;;;4843946;29;20212;-75
2022/07/20 09:43:46;;;;;;;7.07;3.95;;;33.70;66.00;;;;;;4859648;29;20753;-76
2022/07/20 09:46:19;;;;;;;9.88;4.47;;;33.90;66.40;;;;;;4860858;29;20308;-75
2022/07/20 09:48:52;;;;;;;8.95;3.80;;;34.10;66.60;;;;;;4859617;29;20201;-75
2022/07/20 09:51:30;;;;;;;5.05;3.58;;;33.90;65.80;;;;;;4859480;29;20236;-75
2022/07/20 09:54:18;;;;;;;6.40;3.80;;;33.50;65.50;;;;;;4859497;29;20209;-75
2022/07/20 09:56:48;;;;;;;9.23;3.55;;;33.40;63.30;;;;;;4860835;29;20198;-75
2022/07/20 09:59:16;;;;;;;14.30;3.47;;;33.60;64.50;;;;;;4859430;29;20229;-76
2022/07/20 10:01:51;;;;;;;5.07;3.05;;;33.80;62.90;;;;;;4843903;29;20209;-76
2022/07/20 10:04:19;;;;;;;9.30;3.75;;;34.00;61.80;;;;;;4859493;29;20655;-80
2022/07/20 10:06:49;;;;;;;6.93;3.40;;;34.00;62.30;;;;;;4860636;29;20239;-76
2022/07/20 10:09:17;;;;;;;5.55;3.20;;;34.30;63.50;;;;;;4860432;29;20532;-75
2022/07/20 10:11:48;;;;;;;5.38;3.20;;;34.60;62.90;;;;;;4843698;29;20208;-77
2022/07/20 10:14:21;;;;;;;9.55;3.33;;;34.40;61.90;;;;;;4859361;29;20292;-75
2022/07/20 10:16:50;;;;;;;12.38;3.55;;;34.80;62.40;;;;;;4828311;29;20309;-75
2022/07/20 10:19:18;;;;;;;5.32;3.25;;;35.40;60.30;;;;;;4859556;29;20591;-75
2022/07/20 10:21:48;;;;;;;4.03;2.97;;;35.30;59.00;;;;;;4860430;29;20202;-75
2022/07/20 10:24:33;;;;;;;4.63;2.80;;;35.30;58.30;;;;;;4859187;29;20201;-75
2022/07/20 10:27:03;;;;;;;6.47;3.03;;;35.30;57.90;;;;;;4859426;29;20225;-75
2022/07/20 10:29:52;;;;;;;5.68;2.97;;;35.10;58.20;;;;;;4858912;29;20230;-76
2022/07/20 10:32:25;;;;;;;5.18;3.25;;;35.30;56.60;;;;;;4858931;29;20233;-73
2022/07/20 10:34:52;;;;;;;7.35;3.63;;;35.30;56.80;;;;;;4859043;29;20523;-74
2022/07/20 10:37:38;;;;;;;5.65;3.20;;;35.70;56.70;;;;;;4860253;29;20280;-76
2022/07/20 10:40:08;;;;;;;9.10;3.58;;;35.80;56.60;;;;;;4860015;29;20193;-75
2022/07/20 10:42:41;;;;;;;5.15;3.30;;;36.20;57.10;;;;;;4860322;29;20198;-76
2022/07/20 10:45:20;;;;;;;5.78;3.50;;;36.40;55.60;;;;;;4858967;29;20197;-76
2022/07/20 10:47:51;;;;;;;6.30;3.42;;;36.30;55.00;;;;;;4858630;29;20286;-76
2022/07/20 10:50:23;;;;;;;5.97;3.58;;;36.20;55.10;;;;;;4858951;29;20209;-75
2022/07/20 10:52:56;;;;;;;6.97;3.38;;;35.90;55.00;;;;;;4862217;29;20216;-77
2022/07/20 10:55:50;;;;;;;7.93;3.00;;;35.80;55.70;;;;;;4862294;29;20218;-75
2022/07/20 10:58:21;;;;;;;6.53;3.60;;;36.00;55.60;;;;;;4844275;29;20216;-77
2022/07/20 11:00:53;;;;;;;4.95;3.40;;;36.80;55.70;;;;;;4846556;29;20241;-77
2022/07/20 11:03:34;;;;;;;5.43;3.17;;;37.10;53.20;;;;;;4862162;29;20262;-76
2022/07/20 11:06:12;;;;;;;5.45;3.10;;;37.10;53.40;;;;;;4862197;29;20232;-77
2022/07/20 11:08:49;;;;;;;4.70;3.10;;;37.50;52.90;;;;;;4846656;29;20747;-77
2022/07/20 11:11:22;;;;;;;4.80;2.90;;;37.80;54.10;;;;;;4846554;29;20213;-78
2022/07/20 11:13:50;;;;;;;5.18;3.05;;;38.00;52.30;;;;;;4862718;29;20225;-78
2022/07/20 11:16:22;;;;;;;6.00;3.50;;;38.30;52.00;;;;;;4861911;29;20735;-78
2022/07/20 11:18:50;;;;;;;3.92;2.95;;;38.30;51.00;;;;;;4862002;29;20213;-78
2022/07/20 11:21:28;;;;;;;4.97;3.00;;;38.20;51.20;;;;;;4862174;29;20213;-79
2022/07/20 11:24:03;;;;;;;5.57;2.83;;;38.70;51.70;;;;;;4861788;29;20203;-78
2022/07/20 11:26:30;;;;;;;7.32;3.17;;;39.10;50.20;;;;;;4861760;29;20250;-78
2022/07/20 11:28:58;;;;;;;4.32;2.78;;;38.90;49.10;;;;;;4861793;29;20652;-78
2022/07/20 11:31:30;;;;;;;5.47;3.35;;;38.90;50.10;;;;;;4861524;29;20198;-78
2022/07/20 11:33:58;;;;;;;7.47;3.00;;;38.90;49.60;;;;;;4846279;29;20581;-78
2022/07/20 11:36:28;;;;;;;4.55;3.20;;;39.20;49.90;;;;;;4862922;29;20201;-78
2022/07/20 11:39:09;;;;;;;6.88;3.33;;;39.60;50.50;;;;;;4861770;29;20305;-77
2022/07/20 11:41:46;;;;;;;7.63;3.38;;;39.70;48.20;;;;;;4861492;29;20261;-78
2022/07/20 11:44:20;;;;;;;6.25;3.00;;;39.60;47.40;;;;;;4861294;29;20646;-79
2022/07/20 11:46:48;;;;;;;4.40;2.72;;;39.30;47.30;;;;;;4861451;29;20725;-78
2022/07/20 11:49:17;;;;;;;5.32;3.10;;;39.40;48.20;;;;;;4862420;29;20539;-79
2022/07/20 11:52:05;;;;;;;4.47;3.33;;;39.60;48.10;;;;;;4861309;29;20261;-78
2022/07/20 11:54:37;;;;;;;6.25;3.00;;;39.70;47.00;;;;;;4861429;29;20201;-78
2022/07/20 11:57:07;;;;;;;4.40;3.08;;;39.60;46.70;;;;;;4862916;29;20197;-79
2022/07/20 11:59:42;;;;;;;4.95;2.70;;;39.80;46.70;;;;;;4861340;29;20257;-78
2022/07/20 12:02:12;;;;;;;4.40;2.55;;;39.40;46.50;;;;;;4845308;29;20299;-78
2022/07/20 12:04:39;;;;;;;3.80;2.63;;;39.30;46.90;;;;;;4861165;29;20343;-78
2022/07/20 12:08:07;;;;;;;5.30;3.10;;;39.30;46.70;;;;;;4861188;29;20237;-77
2022/07/20 12:09:53;;;;;;;7.68;3.13;;;38.90;45.70;;;;;;4861100;29;20232;-78
2022/07/20 12:12:47;;;;;;;4.70;2.83;;;39.40;47.80;;;;;;4845266;29;20213;-78
2022/07/20 12:15:15;;;;;;;5.18;2.92;;;40.00;46.40;;;;;;4862566;29;20276;-78
2022/07/20 12:17:52;;;;;;;3.33;2.70;;;40.10;46.20;;;;;;4860966;29;20205;-78
2022/07/20 12:20:21;;;;;;;4.05;2.80;;;39.20;44.80;;;;;;4860787;29;20205;-76
2022/07/20 12:22:53;;;;;;;9.00;3.13;;;39.60;45.50;;;;;;4860605;29;20598;-79
2022/07/20 12:25:21;;;;;;;4.07;2.97;;;39.80;46.00;;;;;;4845411;29;20229;-78
2022/07/20 12:27:48;;;;;;;7.35;3.10;;;39.80;44.60;;;;;;4860691;29;20233;-78
2022/07/20 12:30:26;;;;;;;4.72;3.05;;;39.50;46.00;;;;;;4861943;29;20198;-77
2022/07/20 12:33:05;;;;;;;4.18;2.70;;;39.50;45.60;;;;;;4844939;29;20289;-77
2022/07/20 12:35:33;;;;;;;4.85;2.67;;;39.90;46.40;;;;;;4860371;29;20223;-78
2022/07/20 12:38:00;;;;;;;4.80;2.90;;;40.50;47.00;;;;;;4860917;29;20213;-76
2022/07/20 12:40:37;;;;;;;5.35;2.97;;;39.70;44.80;;;;;;4860184;29;20210;-75
2022/07/20 12:43:25;;;;;;;4.75;3.17;;;39.40;44.90;;;;;;4860342;29;20229;-79
2022/07/20 12:45:53;;;;;;;4.97;2.97;;;38.90;45.40;;;;;;4845069;29;20197;-80
2022/07/20 12:48:20;;;;;;;4.53;2.90;;;39.50;46.10;;;;;;4860407;29;20234;-77
2022/07/20 12:50:47;;;;;;;5.32;3.03;;;39.90;46.00;;;;;;4844790;29;20301;-78
2022/07/20 12:53:13;;;;;;;5.93;3.05;;;39.80;45.30;;;;;;4860136;29;20305;-76
2022/07/20 12:55:40;;;;;;;4.43;3.05;;;39.90;45.90;;;;;;4860590;29;20213;-77